FXMM/MSU METAR and TAF weather

Enter ICAO airport designator
Station Type Date Time Source
FXMM METAR 2019/04/25 12:00 UTC NOAA

FXMM 251200Z 00000KT 9999 BKN035 FEW040/// 19/08 Q1021 NOSIG


Station Type Date Time Source
FXMM Decoded METAR 2019/04/25 12:00 UTC NOAA

Maseru / Moshoeshoe, Lesotho (FXMM) 29-27S 027-33E
Apr 25, 2019 - 08:00 AM EDT / 2019.04.25 1200 UTC
Wind: Calm:0
Visibility: greater than 7 mile(s):0
Sky conditions: mostly cloudy
Temperature: 66 F (19 C)
Dew Point: 46 F (8 C)
Relative Humidity: 48%
Pressure (altimeter): 30.15 in. Hg (1021 hPa)
ob: FXMM 251200Z 00000KT 9999 BKN035 FEW040/// 19/08 Q1021 NOSIG
cycle: 12

Station Type Date Time Source
FXMM TAF 2019/04/24 06:45 UTC NOAA

TAF FXMM 240430Z 2406/2506 33004KT 9999 FEW025 SCT030
BECMG 2408/2410 BKN030 FEW035TCU PROB30
TEMPO 2411/2413 33010KT 9000 TSRA OVC030 FEW035CB PROB30
TEMPO 2414/2420 30005KT 8000 FEW015 OVC025
FM242100 00000KT BKN030

Example: see airport list